createdAt,value
2022-08-24T00:00:35.204Z,101160.06
2022-08-24T00:03:05.150Z,101160.97
2022-08-24T00:05:35.032Z,101165.97
2022-08-24T00:08:05.274Z,101156.16
2022-08-24T00:10:37.473Z,101163.75
2022-08-24T00:13:07.001Z,101163.69
2022-08-24T00:15:36.603Z,101156.16
2022-08-24T00:18:06.589Z,101157.94
2022-08-24T00:20:39.189Z,101156.06
2022-08-24T00:23:10.608Z,101134.56
2022-08-24T00:25:42.826Z,101155.00
2022-08-24T00:28:12.941Z,101147.78
2022-08-24T00:30:43.223Z,101136.84
2022-08-24T00:33:12.851Z,101152.84
2022-08-24T00:35:42.484Z,101150.84
2022-08-24T00:38:12.103Z,101144.97
2022-08-24T00:40:48.108Z,101156.06
2022-08-24T00:43:21.314Z,101158.63
2022-08-24T00:45:54.289Z,101159.56
2022-08-24T00:48:28.478Z,101156.53
2022-08-24T00:51:01.371Z,101163.34
2022-08-24T00:53:36.299Z,101158.16
2022-08-24T00:56:13.003Z,101144.59
2022-08-24T00:58:47.577Z,101164.38
2022-08-24T01:01:27.766Z,101167.84
2022-08-24T01:04:00.090Z,101154.19
2022-08-24T01:06:33.444Z,101159.94
2022-08-24T01:09:03.465Z,101164.19
2022-08-24T01:11:39.443Z,101168.94
2022-08-24T01:14:09.217Z,101172.75
2022-08-24T01:16:51.831Z,101169.59
2022-08-24T01:19:32.081Z,101166.47
2022-08-24T01:22:12.890Z,101169.25
2022-08-24T01:24:47.466Z,101179.44
2022-08-24T01:27:20.498Z,101175.97
2022-08-24T01:29:58.076Z,101171.16
2022-08-24T01:32:28.446Z,101165.91
2022-08-24T01:34:58.410Z,101167.91
2022-08-24T01:37:28.058Z,101170.47
2022-08-24T01:40:01.089Z,101156.00
2022-08-24T01:42:34.850Z,101173.94
2022-08-24T01:45:05.282Z,101179.84
2022-08-24T01:47:34.878Z,101183.19
2022-08-24T01:50:04.547Z,101187.34
2022-08-24T01:53:01.381Z,101180.31
2022-08-24T01:55:26.461Z,101181.34
2022-08-24T01:57:56.417Z,101181.44
2022-08-24T02:00:28.244Z,101180.59
2022-08-24T02:02:58.135Z,101173.69
2022-08-24T02:05:28.024Z,101188.38
2022-08-24T02:07:58.522Z,101185.94
2022-08-24T02:10:31.774Z,101168.91
2022-08-24T02:13:02.034Z,101187.78
2022-08-24T02:15:34.420Z,101184.31
2022-08-24T02:18:07.285Z,101178.19
2022-08-24T02:20:45.372Z,101183.38
2022-08-24T02:23:15.339Z,101165.44
2022-08-24T02:25:47.933Z,101184.38
2022-08-24T02:28:17.551Z,101185.63
2022-08-24T02:30:47.765Z,101194.28
2022-08-24T02:33:17.847Z,101194.41
2022-08-24T02:35:47.712Z,101202.25
2022-08-24T02:38:17.265Z,101194.53
2022-08-24T02:40:49.586Z,101198.59
2022-08-24T02:43:19.237Z,101190.22
2022-08-24T02:45:50.633Z,101189.22
2022-08-24T02:48:22.463Z,101191.78
2022-08-24T02:50:54.256Z,101198.72
2022-08-24T02:53:26.191Z,101190.91
2022-08-24T02:55:58.336Z,101193.41
2022-08-24T02:58:28.082Z,101203.94
2022-08-24T03:00:57.711Z,101192.75
2022-08-24T03:03:27.675Z,101191.06
2022-08-24T03:05:58.014Z,101184.94
2022-08-24T03:08:27.546Z,101196.25
2022-08-24T03:11:01.777Z,101187.72
2022-08-24T03:13:32.654Z,101199.66
2022-08-24T03:16:02.734Z,101196.00
2022-08-24T03:18:33.333Z,101195.94
2022-08-24T03:21:07.114Z,101175.53
2022-08-24T03:23:42.083Z,101199.53
2022-08-24T03:26:15.383Z,101202.19
2022-08-24T03:28:45.457Z,101204.09
2022-08-24T03:31:15.959Z,101191.22
2022-08-24T03:33:45.774Z,101202.44
2022-08-24T03:36:15.670Z,101205.72
2022-08-24T03:38:46.187Z,101190.22
2022-08-24T03:41:18.435Z,101207.31
2022-08-24T03:43:51.256Z,101209.28
2022-08-24T03:46:25.405Z,101203.25
2022-08-24T03:48:56.391Z,101202.44
2022-08-24T03:51:28.340Z,101205.00
2022-08-24T03:53:59.921Z,101198.94
2022-08-24T03:56:34.041Z,101199.13
2022-08-24T03:59:04.602Z,101187.97
2022-08-24T04:01:40.323Z,101196.53
2022-08-24T04:04:11.078Z,101190.47
2022-08-24T04:06:44.334Z,101200.97
2022-08-24T04:09:14.479Z,101200.97
2022-08-24T04:11:52.059Z,101196.66
2022-08-24T04:14:27.303Z,101201.78
2022-08-24T04:17:07.233Z,101151.03
2022-08-24T04:19:57.635Z,101206.97
2022-08-24T04:22:34.238Z,101198.53
2022-08-24T04:25:09.180Z,101207.94
2022-08-24T04:27:43.927Z,101198.56
2022-08-24T04:30:15.087Z,101207.13
2022-08-24T04:33:05.430Z,101209.78
2022-08-24T04:35:39.082Z,101196.88
2022-08-24T04:38:09.609Z,101205.50
2022-08-24T04:40:42.038Z,101205.50
2022-08-24T04:43:19.596Z,101199.50
2022-08-24T04:45:51.317Z,101213.22
2022-08-24T04:48:22.659Z,101211.53
2022-08-24T04:50:52.844Z,101222.59
2022-08-24T04:53:22.422Z,101217.53
2022-08-24T04:55:53.789Z,101216.72
2022-08-24T04:58:26.504Z,101220.94
2022-08-24T05:00:56.138Z,101229.72
2022-08-24T05:03:25.995Z,101217.69
2022-08-24T05:05:56.378Z,101225.50
2022-08-24T05:08:26.101Z,101225.47
2022-08-24T05:10:57.711Z,101209.91
2022-08-24T05:13:31.948Z,101226.06
2022-08-24T05:16:01.801Z,101227.00
2022-08-24T05:18:33.601Z,101228.63
2022-08-24T05:21:10.198Z,101230.31
2022-08-24T05:23:43.873Z,101232.81
2022-08-24T05:26:17.853Z,101228.50
2022-08-24T05:28:51.089Z,101230.81
2022-08-24T05:31:24.731Z,101234.84
2022-08-24T05:33:55.521Z,101226.19
2022-08-24T05:36:27.717Z,101213.88
2022-08-24T05:39:01.577Z,101185.41
2022-08-24T05:41:32.823Z,101226.41
2022-08-24T05:44:14.999Z,101223.69
2022-08-24T05:46:45.795Z,101242.53
2022-08-24T05:49:15.574Z,101249.16
2022-08-24T05:51:46.207Z,101245.59
2022-08-24T05:54:16.286Z,101244.34
2022-08-24T05:56:54.888Z,101254.19
2022-08-24T05:59:28.251Z,101252.88
2022-08-24T06:01:59.682Z,101241.00
2022-08-24T06:04:30.431Z,101253.91
2022-08-24T06:07:00.110Z,101261.50
2022-08-24T06:09:30.624Z,101254.69
2022-08-24T06:12:00.549Z,101267.63
2022-08-24T06:14:33.741Z,101261.59
2022-08-24T06:17:07.615Z,101264.84
2022-08-24T06:19:39.163Z,101249.66
2022-08-24T06:22:09.865Z,101259.69
2022-08-24T06:24:53.863Z,101264.00
2022-08-24T06:27:26.224Z,101259.63
2022-08-24T06:30:03.347Z,101254.53
2022-08-24T06:33:07.223Z,101267.53
2022-08-24T06:35:46.785Z,101254.47
2022-08-24T06:38:17.388Z,101257.25
2022-08-24T06:40:49.239Z,101267.38
2022-08-24T06:43:20.977Z,101272.09
2022-08-24T06:45:58.996Z,101272.59
2022-08-24T06:48:36.197Z,101277.00
2022-08-24T06:51:11.917Z,101279.00
2022-08-24T06:53:42.330Z,101280.06
2022-08-24T06:56:12.466Z,101282.22
2022-08-24T06:58:45.581Z,101280.06
2022-08-24T07:01:27.562Z,101285.66
2022-08-24T07:03:58.000Z,101291.09
2022-08-24T07:06:57.115Z,101286.25
2022-08-24T07:09:27.417Z,101293.88
2022-08-24T07:11:57.311Z,101298.03
2022-08-24T07:14:26.942Z,101283.38
2022-08-24T07:16:59.406Z,101304.28
2022-08-24T07:19:29.731Z,101304.97
2022-08-24T07:22:00.853Z,101310.63
2022-08-24T07:24:34.074Z,101303.00
2022-08-24T07:27:03.805Z,101289.00
2022-08-24T07:29:50.444Z,101301.63
2022-08-24T07:32:26.307Z,101297.94
2022-08-24T07:34:58.019Z,101279.38
2022-08-24T07:37:40.172Z,101311.19
2022-08-24T07:40:12.575Z,101311.28
2022-08-24T07:42:42.567Z,101311.97
2022-08-24T07:45:13.099Z,101300.13
2022-08-24T07:47:54.700Z,101316.06
2022-08-24T07:50:47.605Z,101313.03
2022-08-24T07:53:23.831Z,101318.56
2022-08-24T07:55:59.059Z,101301.41
2022-08-24T07:58:29.003Z,101326.16
2022-08-24T08:01:01.401Z,101326.19
2022-08-24T08:03:40.547Z,101317.09
2022-08-24T08:06:16.232Z,101323.13
2022-08-24T08:08:49.252Z,101310.03
2022-08-24T08:11:20.888Z,101288.53
2022-08-24T08:13:50.642Z,101319.19
2022-08-24T08:16:26.441Z,101311.66
2022-08-24T08:19:15.290Z,101320.84
2022-08-24T08:22:01.282Z,101329.44
2022-08-24T08:24:31.788Z,101319.25
2022-08-24T08:27:04.735Z,101314.97
2022-08-24T08:29:42.936Z,101318.22
2022-08-24T08:32:17.311Z,101323.56
2022-08-24T08:34:50.463Z,101317.09
2022-08-24T08:37:20.717Z,101321.56
2022-08-24T08:39:50.717Z,101314.72
2022-08-24T08:42:36.659Z,101323.38
2022-08-24T08:45:20.209Z,101325.69
2022-08-24T08:48:28.691Z,101321.13
2022-08-24T08:51:26.717Z,101324.81
2022-08-24T08:54:14.251Z,101320.66
2022-08-24T08:57:04.319Z,101308.53
2022-08-24T08:59:50.425Z,101317.06
2022-08-24T09:02:39.587Z,101315.63
2022-08-24T09:05:39.278Z,101312.59
2022-08-24T09:08:23.496Z,101309.25
2022-08-24T09:11:05.409Z,101316.22
2022-08-24T09:13:45.827Z,101308.78
2022-08-24T09:16:42.229Z,101293.84
2022-08-24T09:19:31.971Z,101313.38
2022-08-24T09:22:15.260Z,101312.28
2022-08-24T09:25:08.023Z,101303.03
2022-08-24T09:27:59.529Z,101311.50
2022-08-24T09:30:35.853Z,101317.06
2022-08-24T09:33:10.613Z,101318.66
2022-08-24T09:36:06.946Z,101309.94
2022-08-24T09:38:59.643Z,101309.94
2022-08-24T09:41:57.906Z,101310.72
2022-08-24T09:44:57.460Z,101314.13
2022-08-24T09:47:56.449Z,101313.44
2022-08-24T09:50:53.795Z,101306.41
2022-08-24T09:53:50.426Z,101294.09
2022-08-24T09:56:53.805Z,101303.09
2022-08-24T09:59:53.506Z,101288.03
2022-08-24T10:02:51.909Z,101303.09
2022-08-24T10:05:36.348Z,101299.69
2022-08-24T10:08:17.404Z,101267.97
2022-08-24T10:10:54.770Z,101297.75
2022-08-24T10:13:36.363Z,101296.03
2022-08-24T10:16:22.505Z,101270.47
2022-08-24T10:19:05.007Z,101296.59
2022-08-24T10:21:55.127Z,101263.03
2022-08-24T10:24:53.659Z,101276.38
2022-08-24T10:27:38.329Z,101272.38
2022-08-24T10:30:28.052Z,101275.69
2022-08-24T10:33:12.257Z,101278.16
2022-08-24T10:36:01.445Z,101282.09
2022-08-24T10:38:49.898Z,101276.69
2022-08-24T10:41:51.809Z,101275.75
2022-08-24T10:45:00.114Z,101263.06
2022-08-24T10:47:31.683Z,101273.41
2022-08-24T10:50:22.579Z,101275.03
2022-08-24T10:53:20.020Z,101271.63
2022-08-24T10:56:02.859Z,101270.06
2022-08-24T10:58:50.133Z,101271.75
2022-08-24T11:01:26.675Z,101257.19
2022-08-24T11:04:04.510Z,101265.38
2022-08-24T11:06:40.184Z,101268.69
2022-08-24T11:09:18.647Z,101262.81
2022-08-24T11:11:52.693Z,101252.13
2022-08-24T11:14:32.066Z,101259.84
2022-08-24T11:17:18.859Z,101257.88
2022-08-24T11:19:48.978Z,101261.72
2022-08-24T11:22:34.247Z,101258.81
2022-08-24T11:25:10.463Z,101255.09
2022-08-24T11:27:43.573Z,101230.78
2022-08-24T11:30:17.538Z,101255.25
2022-08-24T11:32:49.901Z,101246.50
2022-08-24T11:35:24.831Z,101257.03
2022-08-24T11:37:59.456Z,101226.41
2022-08-24T11:40:33.233Z,101259.09
2022-08-24T11:43:29.159Z,101258.56
2022-08-24T11:46:14.030Z,101248.66
2022-08-24T11:48:55.746Z,101247.13
2022-08-24T11:51:36.158Z,101248.06
2022-08-24T11:54:24.636Z,101242.94
2022-08-24T11:57:08.601Z,101249.31
2022-08-24T11:59:48.290Z,101247.81
2022-08-24T12:02:26.291Z,101248.28
2022-08-24T12:05:04.314Z,101244.16
2022-08-24T12:07:51.042Z,101241.97
2022-08-24T12:10:33.572Z,101234.16
2022-08-24T12:13:09.205Z,101238.88
2022-08-24T12:15:51.839Z,101226.59
2022-08-24T12:18:31.091Z,101229.25
2022-08-24T12:21:01.890Z,101215.53
2022-08-24T12:23:39.431Z,101225.75
2022-08-24T12:26:16.438Z,101215.88
2022-08-24T12:28:54.312Z,101231.31
2022-08-24T12:31:36.100Z,101223.38
2022-08-24T12:34:11.595Z,101231.78
2022-08-24T12:36:49.499Z,101226.66
2022-08-24T12:39:25.008Z,101227.81
2022-08-24T12:42:08.079Z,101230.44
2022-08-24T12:44:50.067Z,101222.44
2022-08-24T12:47:25.315Z,101229.88
2022-08-24T12:50:01.191Z,101225.00
2022-08-24T12:53:12.389Z,101231.38
2022-08-24T12:56:27.654Z,101233.38
2022-08-24T12:59:10.031Z,101228.53
2022-08-24T13:01:45.598Z,101226.03
2022-08-24T13:04:32.751Z,101223.22
2022-08-24T13:07:07.580Z,101224.16
2022-08-24T13:09:40.831Z,101214.72
2022-08-24T13:12:46.394Z,101227.09
2022-08-24T13:15:28.911Z,101224.03
2022-08-24T13:18:03.331Z,101226.31
2022-08-24T13:21:00.107Z,101222.81
2022-08-24T13:23:29.715Z,101193.53
2022-08-24T13:26:03.229Z,101220.38
2022-08-24T13:28:44.672Z,101223.09
2022-08-24T13:31:20.985Z,101220.63
2022-08-24T13:33:54.716Z,101219.94
2022-08-24T13:36:55.413Z,101208.56
2022-08-24T13:40:01.001Z,101211.72
2022-08-24T13:42:47.647Z,101213.00
2022-08-24T13:45:37.550Z,101182.13
2022-08-24T13:48:24.233Z,101211.19
2022-08-24T13:51:21.635Z,101199.78
2022-08-24T13:54:13.644Z,101200.63
2022-08-24T13:57:11.582Z,101201.63
2022-08-24T14:00:13.400Z,101172.59
2022-08-24T14:03:03.158Z,101204.06
2022-08-24T14:05:40.202Z,101208.19
2022-08-24T14:08:24.671Z,101209.63
2022-08-24T14:11:03.446Z,101201.50
2022-08-24T14:13:49.428Z,101193.28
2022-08-24T14:16:49.023Z,101217.16
2022-08-24T14:19:25.311Z,101209.97
2022-08-24T14:22:02.190Z,101194.31
2022-08-24T14:24:46.297Z,101202.25
2022-08-24T14:27:42.118Z,101203.56
2022-08-24T14:30:40.574Z,101203.47
2022-08-24T14:33:28.226Z,101198.56
2022-08-24T14:36:23.738Z,101204.63
2022-08-24T14:39:04.197Z,101197.16
2022-08-24T14:41:49.218Z,101192.06
2022-08-24T14:44:44.883Z,101195.56
2022-08-24T14:47:24.157Z,101195.94
2022-08-24T14:50:10.549Z,101184.94
2022-08-24T14:53:01.738Z,101177.50
2022-08-24T14:55:37.377Z,101185.22
2022-08-24T14:58:29.123Z,101175.16
2022-08-24T15:01:25.056Z,101165.88
2022-08-24T15:04:05.695Z,101175.72
2022-08-24T15:06:45.461Z,101180.50
2022-08-24T15:09:22.533Z,101138.47
2022-08-24T15:11:52.938Z,101174.63
2022-08-24T15:14:37.248Z,101184.31
2022-08-24T15:17:14.216Z,101178.38
2022-08-24T15:19:53.648Z,101181.09
2022-08-24T15:22:29.385Z,101177.59
2022-08-24T15:25:06.362Z,101176.19
2022-08-24T15:27:48.241Z,101172.16
2022-08-24T15:30:26.500Z,101177.72
2022-08-24T15:33:14.982Z,101182.88
2022-08-24T15:35:49.412Z,101169.47
2022-08-24T15:38:21.303Z,101166.81
2022-08-24T15:40:54.417Z,101180.28
2022-08-24T15:43:24.294Z,101171.16
2022-08-24T15:45:55.145Z,101175.19
2022-08-24T15:48:28.465Z,101170.06
2022-08-24T15:51:01.027Z,101170.59
2022-08-24T15:53:39.603Z,101165.31
2022-08-24T15:56:29.898Z,101167.19
2022-08-24T15:59:10.042Z,101167.00
2022-08-24T16:01:52.465Z,101164.28
2022-08-24T16:04:49.204Z,101164.13
2022-08-24T16:07:25.754Z,101171.06
2022-08-24T16:10:06.088Z,101183.97
2022-08-24T16:12:35.798Z,101160.53
2022-08-24T16:15:17.616Z,101175.09
2022-08-24T16:17:52.469Z,101165.88
2022-08-24T16:20:36.449Z,101156.81
2022-08-24T16:23:09.795Z,101169.06
2022-08-24T16:25:44.138Z,101171.59
2022-08-24T16:28:36.363Z,101151.81
2022-08-24T16:31:08.517Z,101170.56
2022-08-24T16:33:45.294Z,101170.56
2022-08-24T16:36:20.851Z,101176.97
2022-08-24T16:38:52.699Z,101154.47
2022-08-24T16:41:25.451Z,101167.06
2022-08-24T16:43:58.129Z,101183.34
2022-08-24T16:46:27.916Z,101182.06
2022-08-24T16:48:57.622Z,101162.44
2022-08-24T16:51:30.051Z,101186.50
2022-08-24T16:54:00.494Z,101183.22
2022-08-24T16:56:31.280Z,101191.88
2022-08-24T16:59:01.813Z,101198.19
2022-08-24T17:01:31.602Z,101193.53
2022-08-24T17:04:01.262Z,101170.69
2022-08-24T17:06:33.516Z,101191.66
2022-08-24T17:09:03.213Z,101175.81
2022-08-24T17:11:33.314Z,101188.16
2022-08-24T17:14:03.090Z,101187.56
2022-08-24T17:16:32.821Z,101190.69
2022-08-24T17:19:03.059Z,101180.09
2022-08-24T17:21:35.914Z,101189.50
2022-08-24T17:24:06.084Z,101192.06
2022-08-24T17:26:36.768Z,101182.19
2022-08-24T17:29:18.454Z,101187.06
2022-08-24T17:31:49.890Z,101185.06
2022-08-24T17:34:20.498Z,101189.78
2022-08-24T17:36:56.395Z,101180.13
2022-08-24T17:39:26.707Z,101198.09
2022-08-24T17:41:58.483Z,101206.38
2022-08-24T17:44:33.309Z,101208.13
2022-08-24T17:47:05.263Z,101209.13
2022-08-24T17:49:35.615Z,101187.13
2022-08-24T17:52:08.131Z,101214.03
2022-08-24T17:54:37.813Z,101199.22
2022-08-24T17:57:07.607Z,101225.44
2022-08-24T17:59:38.648Z,101229.34
2022-08-24T18:02:12.465Z,101228.38
2022-08-24T18:04:43.877Z,101218.50
2022-08-24T18:07:35.901Z,101232.59
2022-08-24T18:10:11.754Z,101224.97
2022-08-24T18:12:41.676Z,101226.53
2022-08-24T18:15:12.988Z,101235.03
2022-08-24T18:17:45.144Z,101231.78
2022-08-24T18:20:17.770Z,101244.38
2022-08-24T18:22:50.701Z,101239.50
2022-08-24T18:25:25.974Z,101246.06
2022-08-24T18:28:00.287Z,101247.69
2022-08-24T18:30:32.055Z,101247.91
2022-08-24T18:33:04.750Z,101245.50
2022-08-24T18:35:35.492Z,101234.75
2022-08-24T18:38:07.851Z,101250.66
2022-08-24T18:40:37.634Z,101222.03
2022-08-24T18:43:08.232Z,101264.91
2022-08-24T18:45:38.274Z,101268.03
2022-08-24T18:48:08.562Z,101269.25
2022-08-24T18:50:42.021Z,101261.84
2022-08-24T18:53:14.991Z,101274.44
2022-08-24T18:55:47.290Z,101273.44
2022-08-24T18:58:17.006Z,101274.56
2022-08-24T19:00:47.418Z,101264.41
2022-08-24T19:03:19.935Z,101270.16
2022-08-24T19:05:49.783Z,101277.63
2022-08-24T19:08:23.038Z,101267.81
2022-08-24T19:10:53.330Z,101276.50
2022-08-24T19:13:23.029Z,101273.13
2022-08-24T19:15:52.950Z,101256.66
2022-08-24T19:18:24.065Z,101266.16
2022-08-24T19:20:59.772Z,101272.31
2022-08-24T19:23:36.006Z,101282.69
2022-08-24T19:26:06.907Z,101266.03
2022-08-24T19:28:37.649Z,101282.56
2022-08-24T19:31:13.016Z,101284.53
2022-08-24T19:33:46.642Z,101286.34
2022-08-24T19:36:22.412Z,101278.91
2022-08-24T19:38:54.754Z,101292.81
2022-08-24T19:41:36.394Z,101294.06
2022-08-24T19:44:27.469Z,101284.22
2022-08-24T19:46:57.791Z,101276.69
2022-08-24T19:49:28.000Z,101293.84
2022-08-24T19:52:01.101Z,101291.28
2022-08-24T19:54:37.527Z,101299.34
2022-08-24T19:57:36.734Z,101302.88
2022-08-24T20:00:26.434Z,101302.34
2022-08-24T20:02:58.061Z,101307.88
2022-08-24T20:05:29.407Z,101293.19
2022-08-24T20:08:00.807Z,101302.16
2022-08-24T20:10:36.250Z,101298.06
2022-08-24T20:13:07.156Z,101297.22
2022-08-24T20:15:37.087Z,101307.69
2022-08-24T20:18:07.875Z,101298.56
2022-08-24T20:20:38.774Z,101301.47
2022-08-24T20:23:09.511Z,101309.47
2022-08-24T20:25:42.473Z,101313.22
2022-08-24T20:28:28.801Z,101317.63
2022-08-24T20:31:01.488Z,101311.03
2022-08-24T20:33:32.171Z,101325.81
2022-08-24T20:36:07.367Z,101308.59
2022-08-24T20:38:40.366Z,101324.44
2022-08-24T20:41:15.688Z,101320.91
2022-08-24T20:43:45.337Z,101307.53
2022-08-24T20:46:16.411Z,101319.19
2022-08-24T20:48:55.400Z,101311.56
2022-08-24T20:51:28.298Z,101323.41
2022-08-24T20:53:58.528Z,101329.66
2022-08-24T20:56:32.841Z,101330.56
2022-08-24T20:59:05.411Z,101335.25
2022-08-24T21:01:35.809Z,101330.19
2022-08-24T21:04:06.209Z,101336.38
2022-08-24T21:06:36.772Z,101331.56
2022-08-24T21:09:08.291Z,101317.78
2022-08-24T21:11:47.056Z,101342.72
2022-08-24T21:14:16.860Z,101338.00
2022-08-24T21:16:46.839Z,101326.53
2022-08-24T21:19:18.800Z,101345.66
2022-08-24T21:21:49.930Z,101339.41
2022-08-24T21:24:25.755Z,101346.66
2022-08-24T21:26:58.383Z,101336.63
2022-08-24T21:29:33.118Z,101340.56
2022-08-24T21:32:17.261Z,101346.00
2022-08-24T21:34:50.413Z,101351.34
2022-08-24T21:37:21.706Z,101335.28
2022-08-24T21:39:55.670Z,101336.44
2022-08-24T21:42:27.959Z,101345.00
2022-08-24T21:44:57.623Z,101331.94
2022-08-24T21:47:27.432Z,101343.16
2022-08-24T21:50:00.423Z,101345.47
2022-08-24T21:52:30.097Z,101342.00
2022-08-24T21:55:00.918Z,101318.84
2022-08-24T21:57:33.483Z,101334.56
2022-08-24T22:00:03.809Z,101331.34
2022-08-24T22:02:34.050Z,101329.63
2022-08-24T22:05:03.723Z,101328.53
2022-08-24T22:07:33.496Z,101347.44
2022-08-24T22:10:03.415Z,101343.34
2022-08-24T22:12:35.642Z,101326.00
2022-08-24T22:15:08.563Z,101340.53
2022-08-24T22:17:39.132Z,101339.75
2022-08-24T22:20:21.576Z,101329.63
2022-08-24T22:22:53.288Z,101336.81
2022-08-24T22:25:23.063Z,101344.69
2022-08-24T22:27:56.401Z,101342.56
2022-08-24T22:30:26.033Z,101332.28
2022-08-24T22:32:56.737Z,101331.56
2022-08-24T22:35:26.415Z,101339.81
2022-08-24T22:37:56.157Z,101325.19
2022-08-24T22:40:25.870Z,101333.13
2022-08-24T22:42:58.550Z,101326.94
2022-08-24T22:45:29.240Z,101328.78
2022-08-24T22:47:58.985Z,101292.97
2022-08-24T22:50:28.678Z,101322.88
2022-08-24T22:52:58.361Z,101319.63
2022-08-24T22:55:28.215Z,101321.25
2022-08-24T22:58:01.944Z,101322.88
2022-08-24T23:00:31.876Z,101318.94
2022-08-24T23:03:01.549Z,101308.19
2022-08-24T23:05:31.182Z,101322.75
2022-08-24T23:08:00.806Z,101319.19
2022-08-24T23:10:30.449Z,101325.38
2022-08-24T23:13:02.701Z,101324.75
2022-08-24T23:15:32.348Z,101319.97
2022-08-24T23:18:22.000Z,101315.66
2022-08-24T23:20:49.053Z,101325.19
2022-08-24T23:23:18.666Z,101330.56
2022-08-24T23:25:48.308Z,101330.53
2022-08-24T23:28:20.524Z,101326.03
2022-08-24T23:30:50.179Z,101323.53
2022-08-24T23:33:19.858Z,101323.88
2022-08-24T23:35:49.487Z,101323.09
2022-08-24T23:38:19.086Z,101323.94
2022-08-24T23:40:48.771Z,101329.25
2022-08-24T23:43:20.994Z,101281.13
2022-08-24T23:45:50.630Z,101324.97
2022-08-24T23:48:20.260Z,101329.22
2022-08-24T23:50:49.914Z,101315.78
2022-08-24T23:53:20.244Z,101317.06
2022-08-24T23:55:49.975Z,101301.28
2022-08-24T23:58:22.999Z,101307.72
